sensor_id;sensor_type;location;lat;lon;timestamp;pressure;altitude;pressure_sealevel;temperature;humidity
61037;BME280;57313;47.040;15.498;2022-10-17T00:02:06;97959.88;;;9.97;100.00
61037;BME280;57313;47.040;15.498;2022-10-17T00:04:33;97958.19;;;9.96;100.00
61037;BME280;57313;47.040;15.498;2022-10-17T00:07:00;97959.09;;;9.95;100.00
61037;BME280;57313;47.040;15.498;2022-10-17T00:09:28;97969.66;;;9.92;100.00
61037;BME280;57313;47.040;15.498;2022-10-17T00:11:55;97977.53;;;9.91;100.00
61037;BME280;57313;47.040;15.498;2022-10-17T00:14:23;97969.66;;;9.92;100.00
61037;BME280;57313;47.040;15.498;2022-10-17T00:16:52;97975.00;;;9.89;100.00
61037;BME280;57313;47.040;15.498;2022-10-17T00:19:19;97977.75;;;9.86;100.00
61037;BME280;57313;47.040;15.498;2022-10-17T00:21:48;97974.25;;;9.87;100.00
61037;BME280;57313;47.040;15.498;2022-10-17T00:24:16;97971.72;;;9.85;100.00
61037;BME280;57313;47.040;15.498;2022-10-17T00:26:43;97965.88;;;9.80;100.00
61037;BME280;57313;47.040;15.498;2022-10-17T00:29:10;97977.13;;;9.81;100.00
61037;BME280;57313;47.040;15.498;2022-10-17T00:31:38;97976.53;;;9.76;100.00
61037;BME280;57313;47.040;15.498;2022-10-17T00:34:07;97975.66;;;9.75;100.00
61037;BME280;57313;47.040;15.498;2022-10-17T00:36:34;97977.56;;;9.72;100.00
61037;BME280;57313;47.040;15.498;2022-10-17T00:39:03;97982.97;;;9.67;100.00
61037;BME280;57313;47.040;15.498;2022-10-17T00:41:32;97977.00;;;9.65;100.00
61037;BME280;57313;47.040;15.498;2022-10-17T00:44:02;97972.03;;;9.60;100.00
61037;BME280;57313;47.040;15.498;2022-10-17T00:46:32;97981.56;;;9.60;100.00
61037;BME280;57313;47.040;15.498;2022-10-17T00:49:03;97972.25;;;9.56;100.00
61037;BME280;57313;47.040;15.498;2022-10-17T00:51:39;97978.13;;;9.59;100.00
61037;BME280;57313;47.040;15.498;2022-10-17T00:54:08;97977.22;;;9.60;100.00
61037;BME280;57313;47.040;15.498;2022-10-17T00:56:37;97977.22;;;9.60;100.00
61037;BME280;57313;47.040;15.498;2022-10-17T00:59:06;97980.59;;;9.62;100.00
61037;BME280;57313;47.040;15.498;2022-10-17T01:01:34;97968.34;;;9.64;100.00
61037;BME280;57313;47.040;15.498;2022-10-17T01:04:02;97976.81;;;9.69;100.00
61037;BME280;57313;47.040;15.498;2022-10-17T01:06:30;97975.09;;;9.68;100.00
61037;BME280;57313;47.040;15.498;2022-10-17T01:08:59;97970.75;;;9.69;100.00
61037;BME280;57313;47.040;15.498;2022-10-17T01:11:32;97969.63;;;9.75;100.00
61037;BME280;57313;47.040;15.498;2022-10-17T01:14:06;97962.56;;;9.77;100.00
61037;BME280;57313;47.040;15.498;2022-10-17T01:16:40;97965.09;;;9.78;100.00
61037;BME280;57313;47.040;15.498;2022-10-17T01:19:32;97974.69;;;9.78;100.00
61037;BME280;57313;47.040;15.498;2022-10-17T01:22:05;97967.78;;;9.77;100.00
61037;BME280;57313;47.040;15.498;2022-10-17T01:25:00;97969.69;;;9.73;100.00
61037;BME280;57313;47.040;15.498;2022-10-17T01:27:50;97972.38;;;9.72;100.00
61037;BME280;57313;47.040;15.498;2022-10-17T01:33:30;97970.53;;;9.74;100.00
61037;BME280;57313;47.040;15.498;2022-10-17T01:36:01;97971.53;;;9.71;100.00
61037;BME280;57313;47.040;15.498;2022-10-17T01:38:34;97973.41;;;9.67;100.00
61037;BME280;57313;47.040;15.498;2022-10-17T01:41:12;97972.84;;;9.61;100.00
61037;BME280;57313;47.040;15.498;2022-10-17T01:43:46;97974.63;;;9.60;100.00
61037;BME280;57313;47.040;15.498;2022-10-17T01:46:20;97973.97;;;9.55;100.00
61037;BME280;57313;47.040;15.498;2022-10-17T01:48:53;97975.88;;;9.51;100.00
61037;BME280;57313;47.040;15.498;2022-10-17T01:51:25;97972.38;;;9.52;100.00
61037;BME280;57313;47.040;15.498;2022-10-17T01:53:58;97976.56;;;9.55;100.00
61037;BME280;57313;47.040;15.498;2022-10-17T01:56:29;97977.44;;;9.56;100.00
61037;BME280;57313;47.040;15.498;2022-10-17T01:59:01;97981.84;;;9.53;100.00
61037;BME280;57313;47.040;15.498;2022-10-17T02:01:31;97980.19;;;9.52;100.00
61037;BME280;57313;47.040;15.498;2022-10-17T02:04:03;97986.41;;;9.48;100.00
61037;BME280;57313;47.040;15.498;2022-10-17T02:06:34;97980.44;;;9.46;100.00
61037;BME280;57313;47.040;15.498;2022-10-17T02:09:15;97977.78;;;9.48;100.00
61037;BME280;57313;47.040;15.498;2022-10-17T02:14:50;97971.16;;;9.41;100.00
61037;BME280;57313;47.040;15.498;2022-10-17T02:17:29;97971.31;;;9.38;100.00
61037;BME280;57313;47.040;15.498;2022-10-17T02:20:09;97972.28;;;9.35;100.00
61037;BME280;57313;47.040;15.498;2022-10-17T02:22:42;97981.00;;;9.34;100.00
61037;BME280;57313;47.040;15.498;2022-10-17T02:25:19;97981.41;;;9.25;100.00
61037;BME280;57313;47.040;15.498;2022-10-17T02:27:53;97980.41;;;9.27;100.00
61037;BME280;57313;47.040;15.498;2022-10-17T02:30:30;97978.88;;;9.23;100.00
61037;BME280;57313;47.040;15.498;2022-10-17T02:33:04;97982.44;;;9.21;100.00
61037;BME280;57313;47.040;15.498;2022-10-17T02:35:39;97982.44;;;9.21;100.00
61037;BME280;57313;47.040;15.498;2022-10-17T02:38:10;97991.00;;;9.23;100.00
61037;BME280;57313;47.040;15.498;2022-10-17T02:40:39;97984.34;;;9.17;100.00
61037;BME280;57313;47.040;15.498;2022-10-17T02:43:08;97977.53;;;9.14;100.00
61037;BME280;57313;47.040;15.498;2022-10-17T02:45:37;97983.00;;;9.08;100.00
61037;BME280;57313;47.040;15.498;2022-10-17T02:48:09;97986.50;;;9.07;100.00
61037;BME280;57313;47.040;15.498;2022-10-17T02:50:49;97985.53;;;9.10;100.00
61037;BME280;57313;47.040;15.498;2022-10-17T02:53:23;97992.28;;;9.14;100.00
61037;BME280;57313;47.040;15.498;2022-10-17T02:55:56;97987.34;;;9.08;100.00
61037;BME280;57313;47.040;15.498;2022-10-17T02:58:29;97983.19;;;9.04;100.00
61037;BME280;57313;47.040;15.498;2022-10-17T03:00:59;97991.91;;;9.03;100.00
61037;BME280;57313;47.040;15.498;2022-10-17T03:03:28;97978.31;;;8.96;100.00
61037;BME280;57313;47.040;15.498;2022-10-17T03:05:58;97990.63;;;8.92;100.00
61037;BME280;57313;47.040;15.498;2022-10-17T03:08:26;98001.13;;;8.89;100.00
61037;BME280;57313;47.040;15.498;2022-10-17T03:10:54;97999.44;;;8.88;100.00
61037;BME280;57313;47.040;15.498;2022-10-17T03:13:22;97991.72;;;8.87;100.00
61037;BME280;57313;47.040;15.498;2022-10-17T03:15:49;97990.88;;;8.86;100.00
61037;BME280;57313;47.040;15.498;2022-10-17T03:18:17;98002.03;;;8.88;100.00
61037;BME280;57313;47.040;15.498;2022-10-17T03:20:45;97995.25;;;8.86;100.00
61037;BME280;57313;47.040;15.498;2022-10-17T03:23:15;97997.91;;;8.84;100.00
61037;BME280;57313;47.040;15.498;2022-10-17T03:25:42;98003.03;;;8.86;100.00
61037;BME280;57313;47.040;15.498;2022-10-17T03:28:10;98003.94;;;8.85;100.00
61037;BME280;57313;47.040;15.498;2022-10-17T03:30:38;98003.28;;;8.79;100.00
61037;BME280;57313;47.040;15.498;2022-10-17T03:33:05;98005.16;;;8.76;100.00
61037;BME280;57313;47.040;15.498;2022-10-17T03:35:32;98012.94;;;8.76;100.00
61037;BME280;57313;47.040;15.498;2022-10-17T03:37:59;98014.78;;;8.74;100.00
61037;BME280;57313;47.040;15.498;2022-10-17T03:40:28;98012.03;;;8.77;100.00
61037;BME280;57313;47.040;15.498;2022-10-17T03:42:56;98012.94;;;8.76;100.00
61037;BME280;57313;47.040;15.498;2022-10-17T03:45:23;98010.41;;;8.74;100.00
61037;BME280;57313;47.040;15.498;2022-10-17T03:47:51;98016.34;;;8.78;100.00
61037;BME280;57313;47.040;15.498;2022-10-17T03:50:17;98026.72;;;8.78;100.00
61037;BME280;57313;47.040;15.498;2022-10-17T03:52:45;98021.59;;;8.76;100.00
61037;BME280;57313;47.040;15.498;2022-10-17T03:55:13;98021.59;;;8.76;100.00
61037;BME280;57313;47.040;15.498;2022-10-17T03:57:42;98020.66;;;8.77;100.00
61037;BME280;57313;47.040;15.498;2022-10-17T04:00:12;98031.97;;;8.76;100.00
61037;BME280;57313;47.040;15.498;2022-10-17T04:02:40;98028.41;;;8.79;100.00
61037;BME280;57313;47.040;15.498;2022-10-17T04:05:07;98030.16;;;8.78;100.00
61037;BME280;57313;47.040;15.498;2022-10-17T04:07:35;98026.72;;;8.78;100.00
61037;BME280;57313;47.040;15.498;2022-10-17T04:10:03;98032.06;;;8.75;100.00
61037;BME280;57313;47.040;15.498;2022-10-17T04:12:31;98032.06;;;8.75;100.00
61037;BME280;57313;47.040;15.498;2022-10-17T04:15:00;98027.75;;;8.74;100.00
61037;BME280;57313;47.040;15.498;2022-10-17T04:17:29;98034.53;;;8.78;100.00
61037;BME280;57313;47.040;15.498;2022-10-17T04:20:04;98036.31;;;8.76;100.00
61037;BME280;57313;47.040;15.498;2022-10-17T04:22:32;98026.19;;;8.70;100.00
61037;BME280;57313;47.040;15.498;2022-10-17T04:24:59;98028.84;;;8.68;100.00
61037;BME280;57313;47.040;15.498;2022-10-17T04:27:26;98034.34;;;8.60;100.00
61037;BME280;57313;47.040;15.498;2022-10-17T04:29:53;98035.41;;;8.56;100.00
61037;BME280;57313;47.040;15.498;2022-10-17T04:32:22;98033.75;;;8.54;100.00
61037;BME280;57313;47.040;15.498;2022-10-17T04:34:49;98037.19;;;8.54;100.00
61037;BME280;57313;47.040;15.498;2022-10-17T04:37:17;98037.19;;;8.54;100.00
61037;BME280;57313;47.040;15.498;2022-10-17T04:39:44;98038.97;;;8.54;100.00
61037;BME280;57313;47.040;15.498;2022-10-17T04:42:12;98033.81;;;8.52;100.00
61037;BME280;57313;47.040;15.498;2022-10-17T04:44:40;98044.28;;;8.51;100.00
61037;BME280;57313;47.040;15.498;2022-10-17T04:47:08;98041.88;;;8.46;100.00
61037;BME280;57313;47.040;15.498;2022-10-17T04:49:38;98035.06;;;8.42;100.00
61037;BME280;57313;47.040;15.498;2022-10-17T04:52:10;98037.06;;;8.35;100.00
61037;BME280;57313;47.040;15.498;2022-10-17T04:54:38;98033.69;;;8.33;100.00
61037;BME280;57313;47.040;15.498;2022-10-17T04:57:05;98036.47;;;8.29;100.00
61037;BME280;57313;47.040;15.498;2022-10-17T04:59:33;98046.97;;;8.25;100.00
61037;BME280;57313;47.040;15.498;2022-10-17T05:02:01;98046.97;;;8.25;100.00
61037;BME280;57313;47.040;15.498;2022-10-17T05:04:28;98040.16;;;8.23;100.00
61037;BME280;57313;47.040;15.498;2022-10-17T05:06:57;98049.75;;;8.21;100.00
61037;BME280;57313;47.040;15.498;2022-10-17T05:09:25;98062.78;;;8.19;100.00
61037;BME280;57313;47.040;15.498;2022-10-17T05:11:53;98055.91;;;8.18;100.00
61037;BME280;57313;47.040;15.498;2022-10-17T05:14:21;98043.16;;;8.12;100.00
61037;BME280;57313;47.040;15.498;2022-10-17T05:16:48;98059.66;;;8.11;100.00
61037;BME280;57313;47.040;15.498;2022-10-17T05:19:15;98058.84;;;8.09;100.00
61037;BME280;57313;47.040;15.498;2022-10-17T05:21:42;98052.16;;;8.03;100.00
61037;BME280;57313;47.040;15.498;2022-10-17T05:24:13;98053.00;;;8.04;100.00
61037;BME280;57313;47.040;15.498;2022-10-17T05:26:41;98053.91;;;8.03;100.00
61037;BME280;57313;47.040;15.498;2022-10-17T05:29:09;98062.53;;;8.03;100.00
61037;BME280;57313;47.040;15.498;2022-10-17T05:31:37;98065.97;;;8.04;100.00
61037;BME280;57313;47.040;15.498;2022-10-17T05:34:04;98058.31;;;8.01;100.00
61037;BME280;57313;47.040;15.498;2022-10-17T05:36:37;98059.94;;;8.03;100.00
61037;BME280;57313;47.040;15.498;2022-10-17T05:39:05;98061.63;;;8.04;100.00
61037;BME280;57313;47.040;15.498;2022-10-17T05:41:34;98063.38;;;8.04;100.00
61037;BME280;57313;47.040;15.498;2022-10-17T05:44:01;98073.69;;;8.05;100.00
61037;BME280;57313;47.040;15.498;2022-10-17T05:46:31;98071.09;;;8.05;100.00
61037;BME280;57313;47.040;15.498;2022-10-17T05:48:58;98059.84;;;8.06;100.00
61037;BME280;57313;47.040;15.498;2022-10-17T05:51:25;98065.06;;;8.05;100.00
61037;BME280;57313;47.040;15.498;2022-10-17T05:53:52;98083.97;;;8.08;100.00
61037;BME280;57313;47.040;15.498;2022-10-17T05:56:19;98080.53;;;8.08;100.00
61037;BME280;57313;47.040;15.498;2022-10-17T05:58:48;98085.72;;;8.08;100.00
61037;BME280;57313;47.040;15.498;2022-10-17T06:01:18;98091.78;;;8.07;100.00
61037;BME280;57313;47.040;15.498;2022-10-17T06:03:46;98100.31;;;8.11;100.00
61037;BME280;57313;47.040;15.498;2022-10-17T06:06:14;98098.56;;;8.11;100.00
61037;BME280;57313;47.040;15.498;2022-10-17T06:08:41;98101.09;;;8.13;100.00
61037;BME280;57313;47.040;15.498;2022-10-17T06:11:09;98103.69;;;8.13;100.00
61037;BME280;57313;47.040;15.498;2022-10-17T06:13:37;98108.72;;;8.17;100.00
61037;BME280;57313;47.040;15.498;2022-10-17T06:16:07;98107.56;;;8.24;100.00
61037;BME280;57313;47.040;15.498;2022-10-17T06:18:34;98108.28;;;8.28;100.00
61037;BME280;57313;47.040;15.498;2022-10-17T06:21:02;98122.72;;;8.35;100.00
61037;BME280;57313;47.040;15.498;2022-10-17T06:23:29;98126.03;;;8.39;100.00
61037;BME280;57313;47.040;15.498;2022-10-17T06:25:58;98132.66;;;8.48;100.00
61037;BME280;57313;47.040;15.498;2022-10-17T06:28:26;98138.44;;;8.54;100.00
61037;BME280;57313;47.040;15.498;2022-10-17T06:30:54;98129.53;;;8.61;100.00
61037;BME280;57313;47.040;15.498;2022-10-17T06:33:23;98146.63;;;8.67;100.00
61037;BME280;57313;47.040;15.498;2022-10-17T06:35:51;98135.13;;;8.73;100.00
61037;BME280;57313;47.040;15.498;2022-10-17T06:38:18;98146.13;;;8.79;100.00
61037;BME280;57313;47.040;15.498;2022-10-17T06:40:46;98143.28;;;8.86;100.00
61037;BME280;57313;47.040;15.498;2022-10-17T06:43:13;98149.06;;;8.92;100.00
61037;BME280;57313;47.040;15.498;2022-10-17T06:45:40;98143.69;;;8.97;100.00
61037;BME280;57313;47.040;15.498;2022-10-17T06:48:08;98153.00;;;9.03;100.00
61037;BME280;57313;47.040;15.498;2022-10-17T06:50:38;98146.63;;;9.10;100.00
61037;BME280;57313;47.040;15.498;2022-10-17T06:53:05;98148.97;;;9.16;100.00
61037;BME280;57313;47.040;15.498;2022-10-17T06:55:32;98160.94;;;9.20;100.00
61037;BME280;57313;47.040;15.498;2022-10-17T06:57:59;98154.63;;;9.26;100.00
61037;BME280;57313;47.040;15.498;2022-10-17T07:00:26;98150.94;;;9.31;100.00
61037;BME280;57313;47.040;15.498;2022-10-17T07:02:53;98159.31;;;9.38;100.00
61037;BME280;57313;47.040;15.498;2022-10-17T07:05:20;98164.38;;;9.41;100.00
61037;BME280;57313;47.040;15.498;2022-10-17T07:07:49;98158.84;;;9.49;100.00
61037;BME280;57313;47.040;15.498;2022-10-17T07:10:17;98172.53;;;9.54;100.00
61037;BME280;57313;47.040;15.498;2022-10-17T07:12:44;98171.34;;;9.61;100.00
61037;BME280;57313;47.040;15.498;2022-10-17T07:15:12;98175.44;;;9.67;100.00
61037;BME280;57313;47.040;15.498;2022-10-17T07:17:39;98169.97;;;9.73;100.00
61037;BME280;57313;47.040;15.498;2022-10-17T07:20:07;98177.50;;;9.79;100.00
61037;BME280;57313;47.040;15.498;2022-10-17T07:22:34;98165.06;;;9.86;100.00
61037;BME280;57313;47.040;15.498;2022-10-17T07:25:04;98168.44;;;9.88;100.00
61037;BME280;57313;47.040;15.498;2022-10-17T07:27:32;98174.09;;;9.98;100.00
61037;BME280;57313;47.040;15.498;2022-10-17T07:29:59;98183.25;;;10.06;100.00
61037;BME280;57313;47.040;15.498;2022-10-17T07:32:26;98182.13;;;10.12;100.00
61037;BME280;57313;47.040;15.498;2022-10-17T07:34:54;98170.69;;;10.16;100.00
61037;BME280;57313;47.040;15.498;2022-10-17T07:37:22;98185.09;;;10.23;100.00
61037;BME280;57313;47.040;15.498;2022-10-17T07:39:49;98186.44;;;10.32;100.00
61037;BME280;57313;47.040;15.498;2022-10-17T07:42:18;98187.91;;;10.39;100.00
61037;BME280;57313;47.040;15.498;2022-10-17T07:44:47;98191.81;;;10.48;100.00
61037;BME280;57313;47.040;15.498;2022-10-17T07:47:14;98194.00;;;10.57;100.00
61037;BME280;57313;47.040;15.498;2022-10-17T07:49:41;98192.66;;;10.68;100.00
61037;BME280;57313;47.040;15.498;2022-10-17T07:52:09;98189.06;;;10.70;100.00
61037;BME280;57313;47.040;15.498;2022-10-17T07:54:37;98192.22;;;10.77;100.00
61037;BME280;57313;47.040;15.498;2022-10-17T07:57:04;98187.56;;;10.84;100.00
61037;BME280;57313;47.040;15.498;2022-10-17T07:59:33;98192.47;;;10.90;100.00
61037;BME280;57313;47.040;15.498;2022-10-17T08:02:02;98182.75;;;10.93;100.00
61037;BME280;57313;47.040;15.498;2022-10-17T08:04:29;98191.13;;;11.00;100.00
61037;BME280;57313;47.040;15.498;2022-10-17T08:06:57;98190.06;;;11.04;100.00
61037;BME280;57313;47.040;15.498;2022-10-17T08:09:46;98199.97;;;11.15;100.00
61037;BME280;57313;47.040;15.498;2022-10-17T08:12:14;98195.38;;;11.20;100.00
61037;BME280;57313;47.040;15.498;2022-10-17T08:14:43;98201.13;;;11.27;100.00
61037;BME280;57313;47.040;15.498;2022-10-17T08:17:10;98203.44;;;11.33;100.00
61037;BME280;57313;47.040;15.498;2022-10-17T08:19:38;98195.38;;;11.38;100.00
61037;BME280;57313;47.040;15.498;2022-10-17T08:22:05;98207.19;;;11.45;100.00
61037;BME280;57313;47.040;15.498;2022-10-17T08:24:33;98203.28;;;11.54;100.00
61037;BME280;57313;47.040;15.498;2022-10-17T08:27:01;98202.06;;;11.61;100.00
61037;BME280;57313;47.040;15.498;2022-10-17T08:29:28;98188.63;;;11.68;100.00
61037;BME280;57313;47.040;15.498;2022-10-17T08:31:57;98196.00;;;11.78;100.00
61037;BME280;57313;47.040;15.498;2022-10-17T08:34:27;98196.44;;;11.86;100.00
61037;BME280;57313;47.040;15.498;2022-10-17T08:36:54;98193.47;;;11.94;100.00
61037;BME280;57313;47.040;15.498;2022-10-17T08:39:22;98195.81;;;11.98;100.00
61037;BME280;57313;47.040;15.498;2022-10-17T08:42:02;98200.66;;;12.06;100.00
61037;BME280;57313;47.040;15.498;2022-10-17T08:44:42;98206.31;;;12.14;100.00
61037;BME280;57313;47.040;15.498;2022-10-17T08:47:18;98198.06;;;12.22;100.00
61037;BME280;57313;47.040;15.498;2022-10-17T08:49:48;98194.38;;;12.26;100.00
61037;BME280;57313;47.040;15.498;2022-10-17T08:52:23;98200.78;;;12.36;100.00
61037;BME280;57313;47.040;15.498;2022-10-17T08:54:54;98197.59;;;12.47;100.00
61037;BME280;57313;47.040;15.498;2022-10-17T08:57:22;98197.41;;;12.50;100.00
61037;BME280;57313;47.040;15.498;2022-10-17T08:59:51;98194.47;;;12.56;100.00
61037;BME280;57313;47.040;15.498;2022-10-17T09:02:40;98194.91;;;12.65;100.00
61037;BME280;57313;47.040;15.498;2022-10-17T09:05:24;98192.78;;;12.71;100.00
61037;BME280;57313;47.040;15.498;2022-10-17T09:08:02;98197.69;;;12.78;100.00
61037;BME280;57313;47.040;15.498;2022-10-17T09:10:37;98204.25;;;12.85;100.00
61037;BME280;57313;47.040;15.498;2022-10-17T09:13:18;98209.13;;;12.91;100.00
61037;BME280;57313;47.040;15.498;2022-10-17T09:16:01;98193.88;;;12.99;100.00
61037;BME280;57313;47.040;15.498;2022-10-17T09:18:36;98205.56;;;13.08;100.00
61037;BME280;57313;47.040;15.498;2022-10-17T09:21:16;98202.69;;;13.13;100.00
61037;BME280;57313;47.040;15.498;2022-10-17T09:23:47;98201.16;;;13.24;100.00
61037;BME280;57313;47.040;15.498;2022-10-17T09:26:26;98198.06;;;13.34;100.00
61037;BME280;57313;47.040;15.498;2022-10-17T09:28:55;98201.84;;;13.44;100.00
61037;BME280;57313;47.040;15.498;2022-10-17T09:31:25;98202.22;;;13.52;100.00
61037;BME280;57313;47.040;15.498;2022-10-17T09:33:56;98191.97;;;13.63;100.00
61037;BME280;57313;47.040;15.498;2022-10-17T09:36:28;98193.09;;;13.74;100.00
61037;BME280;57313;47.040;15.498;2022-10-17T09:38:58;98194.50;;;13.79;100.00
61037;BME280;57313;47.040;15.498;2022-10-17T09:41:31;98196.75;;;13.86;100.00
61037;BME280;57313;47.040;15.498;2022-10-17T09:44:18;98188.53;;;13.92;100.00
61037;BME280;57313;47.040;15.498;2022-10-17T09:47:05;98195.28;;;13.96;100.00
61037;BME280;57313;47.040;15.498;2022-10-17T09:49:38;98199.13;;;14.05;100.00
61037;BME280;57313;47.040;15.498;2022-10-17T09:52:10;98193.25;;;14.15;100.00
61037;BME280;57313;47.040;15.498;2022-10-17T09:54:44;98199.56;;;14.26;100.00
61037;BME280;57313;47.040;15.498;2022-10-17T09:57:13;98190.59;;;14.30;100.00
61037;BME280;57313;47.040;15.498;2022-10-17T09:59:44;98193.41;;;14.41;100.00
61037;BME280;57313;47.040;15.498;2022-10-17T10:02:20;98203.31;;;14.50;100.00
61037;BME280;57313;47.040;15.498;2022-10-17T10:05:15;98196.09;;;14.68;100.00
61037;BME280;57313;47.040;15.498;2022-10-17T10:07:59;98195.63;;;14.76;100.00
61037;BME280;57313;47.040;15.498;2022-10-17T10:10:28;98189.78;;;14.85;100.00
61037;BME280;57313;47.040;15.498;2022-10-17T10:13:16;98190.97;;;14.94;100.00
61037;BME280;57313;47.040;15.498;2022-10-17T10:15:45;98191.53;;;14.99;100.00
61037;BME280;57313;47.040;15.498;2022-10-17T10:18:31;98191.47;;;15.14;100.00
61037;BME280;57313;47.040;15.498;2022-10-17T10:21:08;98193.59;;;15.21;100.00
61037;BME280;57313;47.040;15.498;2022-10-17T10:23:37;98189.50;;;15.30;100.00
61037;BME280;57313;47.040;15.498;2022-10-17T10:26:21;98189.50;;;15.30;100.00
61037;BME280;57313;47.040;15.498;2022-10-17T10:28:54;98192.28;;;15.41;100.00
61037;BME280;57313;47.040;15.498;2022-10-17T10:31:32;98195.13;;;15.51;100.00
61037;BME280;57313;47.040;15.498;2022-10-17T10:34:03;98189.25;;;15.60;100.00
61037;BME280;57313;47.040;15.498;2022-10-17T10:37:04;98194.84;;;15.69;100.00
61037;BME280;57313;47.040;15.498;2022-10-17T10:39:41;98189.59;;;15.82;100.00
61037;BME280;57313;47.040;15.498;2022-10-17T10:42:20;98184.50;;;15.93;100.00
61037;BME280;57313;47.040;15.498;2022-10-17T10:44:48;98186.16;;;16.07;100.00
61037;BME280;57313;47.040;15.498;2022-10-17T10:47:20;98183.72;;;16.17;100.00
61037;BME280;57313;47.040;15.498;2022-10-17T10:49:51;98182.16;;;16.27;100.00
61037;BME280;57313;47.040;15.498;2022-10-17T10:52:30;98182.44;;;16.35;100.00
61037;BME280;57313;47.040;15.498;2022-10-17T10:55:08;98170.47;;;16.44;100.00
61037;BME280;57313;47.040;15.498;2022-10-17T10:57:43;98176.94;;;16.51;100.00
61037;BME280;57313;47.040;15.498;2022-10-17T11:00:15;98169.56;;;16.56;100.00
61037;BME280;57313;47.040;15.498;2022-10-17T11:02:50;98169.00;;;16.64;100.00
61037;BME280;57313;47.040;15.498;2022-10-17T11:05:33;98167.63;;;16.71;100.00
61037;BME280;57313;47.040;15.498;2022-10-17T11:08:09;98168.66;;;16.81;100.00
61037;BME280;57313;47.040;15.498;2022-10-17T11:10:43;98170.88;;;16.88;100.00
61037;BME280;57313;47.040;15.498;2022-10-17T11:13:16;98171.84;;;16.98;100.00
61037;BME280;57313;47.040;15.498;2022-10-17T11:15:50;98175.00;;;17.03;100.00
61037;BME280;57313;47.040;15.498;2022-10-17T11:18:23;98152.88;;;17.05;100.00
61037;BME280;57313;47.040;15.498;2022-10-17T11:20:55;98167.50;;;17.10;100.00
61037;BME280;57313;47.040;15.498;2022-10-17T11:23:37;98159.16;;;17.16;100.00
61037;BME280;57313;47.040;15.498;2022-10-17T11:26:12;98167.31;;;17.24;100.00
61037;BME280;57313;47.040;15.498;2022-10-17T11:28:40;98162.78;;;17.26;100.00
61037;BME280;57313;47.040;15.498;2022-10-17T11:31:11;98158.72;;;17.33;100.00
61037;BME280;57313;47.040;15.498;2022-10-17T11:33:44;98159.09;;;17.40;100.00
61037;BME280;57313;47.040;15.498;2022-10-17T11:36:14;98157.22;;;17.42;100.00
61037;BME280;57313;47.040;15.498;2022-10-17T11:38:48;98152.44;;;17.47;100.00
61037;BME280;57313;47.040;15.498;2022-10-17T11:41:20;98153.66;;;17.54;100.00
61037;BME280;57313;47.040;15.498;2022-10-17T11:43:53;98157.47;;;17.62;100.00
61037;BME280;57313;47.040;15.498;2022-10-17T11:46:26;98150.91;;;17.67;100.00
61037;BME280;57313;47.040;15.498;2022-10-17T11:49:06;98152.50;;;17.70;100.00
61037;BME280;57313;47.040;15.498;2022-10-17T11:51:45;98150.31;;;17.75;100.00
61037;BME280;57313;47.040;15.498;2022-10-17T11:54:36;98148.28;;;17.79;100.00
61037;BME280;57313;47.040;15.498;2022-10-17T11:57:26;98146.03;;;17.85;100.00
61037;BME280;57313;47.040;15.498;2022-10-17T12:00:05;98136.22;;;17.87;100.00
61037;BME280;57313;47.040;15.498;2022-10-17T12:02:44;98134.75;;;17.83;100.00
61037;BME280;57313;47.040;15.498;2022-10-17T12:05:17;98141.03;;;17.93;100.00
61037;BME280;57313;47.040;15.498;2022-10-17T12:07:50;98141.50;;;17.99;100.00
61037;BME280;57313;47.040;15.498;2022-10-17T12:10:33;98136.84;;;18.02;100.00
61037;BME280;57313;47.040;15.498;2022-10-17T12:13:49;98139.97;;;18.07;100.00
61037;BME280;57313;47.040;15.498;2022-10-17T12:16:41;98135.16;;;18.12;100.00
61037;BME280;57313;47.040;15.498;2022-10-17T12:19:25;98136.25;;;18.21;100.00
61037;BME280;57313;47.040;15.498;2022-10-17T12:21:56;98134.44;;;18.22;100.00
61037;BME280;57313;47.040;15.498;2022-10-17T12:24:38;98143.78;;;18.26;100.00
61037;BME280;57313;47.040;15.498;2022-10-17T12:30:19;98131.28;;;18.39;100.00
61037;BME280;57313;47.040;15.498;2022-10-17T12:33:00;98127.34;;;18.45;100.00
61037;BME280;57313;47.040;15.498;2022-10-17T12:35:35;98125.41;;;18.47;100.00
61037;BME280;57313;47.040;15.498;2022-10-17T12:38:24;98118.94;;;18.51;100.00
61037;BME280;57313;47.040;15.498;2022-10-17T12:41:00;98117.25;;;18.61;100.00
61037;BME280;57313;47.040;15.498;2022-10-17T12:43:47;98116.75;;;18.68;100.00
61037;BME280;57313;47.040;15.498;2022-10-17T12:46:45;98115.41;;;18.73;100.00
61037;BME280;57313;47.040;15.498;2022-10-17T12:55:13;98121.97;;;18.90;100.00
61037;BME280;57313;47.040;15.498;2022-10-17T12:57:55;98130.72;;;18.91;100.00
61037;BME280;57313;47.040;15.498;2022-10-17T13:00:30;98125.06;;;18.95;100.00
61037;BME280;57313;47.040;15.498;2022-10-17T13:03:03;98111.63;;;18.98;100.00
61037;BME280;57313;47.040;15.498;2022-10-17T13:05:34;98112.34;;;19.00;100.00
61037;BME280;57313;47.040;15.498;2022-10-17T13:08:04;98111.97;;;19.05;100.00
61037;BME280;57313;47.040;15.498;2022-10-17T13:10:37;98113.88;;;19.03;100.00
61037;BME280;57313;47.040;15.498;2022-10-17T13:13:14;98117.50;;;19.02;100.00
61037;BME280;57313;47.040;15.498;2022-10-17T13:15:45;98119.03;;;19.05;100.00
61037;BME280;57313;47.040;15.498;2022-10-17T13:18:20;98113.50;;;19.08;100.00
61037;BME280;57313;47.040;15.498;2022-10-17T13:20:56;98111.47;;;19.11;100.00
61037;BME280;57313;47.040;15.498;2022-10-17T13:23:29;98115.75;;;19.12;100.00
61037;BME280;57313;47.040;15.498;2022-10-17T13:26:15;98109.78;;;19.10;100.00